Time;durP1;ratioP1;P1;durP2;ratioP2;P2;SDS_P1;SDS_P2;PMS_P1;PMS_P2;Temp;Humidity;BMP_temperature;BMP_pressure;BME280_temperature;BME280_humidity;BME280_pressure;Samples;Min_cycle;Max_cycle;Signal;HPM_P1;HPM_P2
2023/08/06 00:00:08;;;;;;;3.15;1.70;;;16.30;99.90;;;;;;5016605;28;20662;-86
2023/08/06 00:02:34;;;;;;;4.10;1.63;;;16.30;99.90;;;;;;4997707;28;20179;-86
2023/08/06 00:05:00;;;;;;;1.70;1.20;;;16.30;99.90;;;;;;4998983;28;20217;-88
2023/08/06 00:07:26;;;;;;;2.95;1.42;;;16.30;99.90;;;;;;4999286;28;20610;-87
2023/08/06 00:09:52;;;;;;;6.35;1.80;;;16.30;99.90;;;;;;4998824;28;20235;-86
2023/08/06 00:12:18;;;;;;;1.88;1.45;;;16.20;99.90;;;;;;4997964;28;20190;-87
2023/08/06 00:14:44;;;;;;;4.43;1.20;;;16.20;99.90;;;;;;4999129;28;20234;-86
2023/08/06 00:17:10;;;;;;;2.65;1.40;;;16.20;99.90;;;;;;4998694;28;20215;-87
2023/08/06 00:19:36;;;;;;;2.08;1.20;;;16.20;99.90;;;;;;4998945;28;20567;-86
2023/08/06 00:22:02;;;;;;;1.70;1.20;;;16.20;99.90;;;;;;4998869;28;20179;-90
2023/08/06 00:24:28;;;;;;;2.47;1.40;;;16.20;99.90;;;;;;4998904;28;20214;-87
2023/08/06 00:26:54;;;;;;;2.33;1.45;;;16.20;99.90;;;;;;4998774;28;20519;-87
2023/08/06 00:29:19;;;;;;;5.35;1.40;;;16.20;99.90;;;;;;5016193;28;20194;-88
2023/08/06 00:31:45;;;;;;;4.15;1.63;;;16.20;99.90;;;;;;4998670;28;20179;-86
2023/08/06 00:34:11;;;;;;;4.55;1.27;;;16.20;99.90;;;;;;5015970;28;20190;-86
2023/08/06 00:36:36;;;;;;;2.35;1.30;;;16.20;99.90;;;;;;4998590;28;20258;-86
2023/08/06 00:39:02;;;;;;;1.55;1.45;;;16.20;99.90;;;;;;5016134;28;20172;-88
2023/08/06 00:41:28;;;;;;;4.18;1.30;;;16.20;99.90;;;;;;4998216;28;20223;-87
2023/08/06 00:43:54;;;;;;;2.55;1.60;;;16.10;99.90;;;;;;5015817;28;20270;-88
2023/08/06 00:46:20;;;;;;;4.10;1.42;;;16.20;99.90;;;;;;5015769;28;20179;-86
2023/08/06 00:48:47;;;;;;;1.83;1.25;;;16.20;99.90;;;;;;5015495;28;20246;-87
2023/08/06 00:51:13;;;;;;;4.78;1.50;;;16.20;99.90;;;;;;4998576;28;20234;-88
2023/08/06 00:53:40;;;;;;;2.65;1.60;;;16.20;99.90;;;;;;4998334;28;20179;-85
2023/08/06 00:56:07;;;;;;;2.40;1.33;;;16.30;99.90;;;;;;4998124;28;20194;-87
2023/08/06 00:58:34;;;;;;;1.95;1.65;;;16.30;99.90;;;;;;4998223;28;20171;-86
2023/08/06 01:01:00;;;;;;;2.83;1.70;;;16.30;99.90;;;;;;4998038;28;20187;-85
2023/08/06 01:03:26;;;;;;;3.17;1.83;;;16.30;99.90;;;;;;5015474;28;20175;-86
2023/08/06 01:05:52;;;;;;;3.10;2.00;;;16.30;99.90;;;;;;4998195;28;20636;-87
2023/08/06 01:08:56;;;;;;;3.25;1.80;;;16.30;99.90;;;;;;4993704;28;20224;-86
2023/08/06 01:11:47;;;;;;;2.30;1.45;;;16.30;99.90;;;;;;4961251;28;20279;-85
2023/08/06 01:14:22;;;;;;;3.72;1.70;;;16.20;99.90;;;;;;4978506;28;20176;-88
2023/08/06 01:16:50;;;;;;;3.38;1.80;;;16.20;99.90;;;;;;4978167;28;20259;-85
2023/08/06 01:19:21;;;;;;;2.03;1.60;;;16.20;99.90;;;;;;4977745;28;20267;-85
2023/08/06 01:21:46;;;;;;;1.90;1.73;;;16.20;99.90;;;;;;5425390;23;20734;-92
2023/08/06 01:24:12;;;;;;;2.75;1.60;;;16.10;99.90;;;;;;4994680;28;20208;-93
2023/08/06 01:26:43;;;;;;;2.53;1.52;;;16.10;99.90;;;;;;4998968;28;20175;-93
2023/08/06 01:29:22;;;;;;;4.30;1.65;;;16.10;99.90;;;;;;4999074;28;20215;-93
2023/08/06 01:31:52;;;;;;;2.83;1.70;;;16.00;99.90;;;;;;4998833;28;20175;-92
2023/08/06 01:34:22;;;;;;;2.92;1.80;;;16.00;99.90;;;;;;4999187;28;20685;-93
2023/08/06 01:36:47;;;;;;;2.25;1.40;;;15.90;99.90;;;;;;4998450;28;20233;-93
2023/08/06 01:39:13;;;;;;;1.90;1.70;;;15.90;99.90;;;;;;4998614;28;20187;-94
2023/08/06 01:41:39;;;;;;;5.75;1.85;;;15.90;99.90;;;;;;4998487;28;20273;-93
2023/08/06 01:44:06;;;;;;;4.68;1.60;;;15.90;99.90;;;;;;4998358;28;20556;-94
2023/08/06 01:46:32;;;;;;;1.55;1.45;;;15.90;99.90;;;;;;4998479;28;20175;-93
2023/08/06 01:48:57;;;;;;;4.32;1.48;;;15.90;99.90;;;;;;4998490;28;20270;-92
2023/08/06 01:51:23;;;;;;;5.68;1.60;;;15.90;99.90;;;;;;4997680;28;20500;-93
2023/08/06 01:53:49;;;;;;;2.38;1.50;;;15.90;99.90;;;;;;4998342;28;20179;-92
2023/08/06 01:56:15;;;;;;;1.88;1.50;;;15.90;99.90;;;;;;4998405;28;20171;-92
2023/08/06 01:58:40;;;;;;;3.55;1.63;;;15.90;99.90;;;;;;4998462;28;20266;-91
2023/08/06 02:01:06;;;;;;;3.45;1.48;;;15.90;99.90;;;;;;4998372;28;20673;-93
2023/08/06 02:03:40;;;;;;;2.58;1.63;;;15.90;99.90;;;;;;4998395;28;20203;-92
2023/08/06 02:06:06;;;;;;;3.75;1.50;;;15.90;99.90;;;;;;4997875;28;20190;-92
2023/08/06 02:08:31;;;;;;;3.50;1.73;;;15.90;99.90;;;;;;4998835;28;20179;-93
2023/08/06 02:10:58;;;;;;;3.65;1.50;;;15.80;99.90;;;;;;4997948;28;20190;-92
2023/08/06 02:13:24;;;;;;;2.75;1.70;;;15.80;99.90;;;;;;4997443;28;20183;-93
2023/08/06 02:15:49;;;;;;;2.65;1.80;;;15.80;99.90;;;;;;4997820;28;20187;-92
2023/08/06 02:18:16;;;;;;;5.75;2.25;;;15.80;99.90;;;;;;4998010;28;20182;-93
2023/08/06 02:20:42;;;;;;;2.38;1.70;;;15.80;99.90;;;;;;4998207;28;20183;-93
2023/08/06 02:23:19;;;;;;;2.03;1.67;;;15.80;99.90;;;;;;5018036;28;20189;-93
2023/08/06 02:25:45;;;;;;;5.47;1.80;;;15.80;99.90;;;;;;5017509;28;20648;-92
2023/08/06 02:28:11;;;;;;;3.80;1.55;;;15.70;99.90;;;;;;5017664;28;20179;-94
2023/08/06 02:30:36;;;;;;;2.47;1.90;;;15.70;99.90;;;;;;5017551;28;20178;-92
2023/08/06 02:33:05;;;;;;;2.25;1.70;;;15.70;99.90;;;;;;5017500;28;20174;-94
2023/08/06 02:35:30;;;;;;;2.05;1.80;;;15.70;99.90;;;;;;5017258;28;20178;-93
2023/08/06 02:37:56;;;;;;;3.38;1.98;;;15.70;99.90;;;;;;5017275;28;20270;-92
2023/08/06 02:40:22;;;;;;;3.10;2.20;;;15.70;99.90;;;;;;5017030;28;20178;-92
2023/08/06 02:42:48;;;;;;;3.28;2.00;;;15.60;99.90;;;;;;5017322;28;20618;-93
2023/08/06 02:45:13;;;;;;;6.85;2.20;;;15.60;99.90;;;;;;5017318;28;20727;-93
2023/08/06 02:47:39;;;;;;;2.25;1.90;;;15.60;99.90;;;;;;5017285;28;20213;-92
2023/08/06 02:50:05;;;;;;;2.35;2.00;;;15.60;99.90;;;;;;5017017;28;20281;-93
2023/08/06 02:52:31;;;;;;;3.92;2.00;;;15.60;99.90;;;;;;5016859;28;20269;-93
2023/08/06 02:55:13;;;;;;;3.67;2.17;;;15.60;99.90;;;;;;5017656;28;20210;-93
2023/08/06 02:57:39;;;;;;;3.35;2.38;;;15.60;99.90;;;;;;5017399;28;20222;-92
2023/08/06 03:00:06;;;;;;;2.28;2.08;;;15.60;99.90;;;;;;5017207;28;20186;-93
2023/08/06 03:02:31;;;;;;;5.00;2.05;;;15.60;99.90;;;;;;5017062;28;20625;-92
2023/08/06 03:05:01;;;;;;;5.07;2.28;;;15.60;99.90;;;;;;5016727;28;20225;-92
2023/08/06 03:07:27;;;;;;;3.58;1.88;;;15.60;99.90;;;;;;5017146;28;20171;-93
2023/08/06 03:09:53;;;;;;;3.67;2.25;;;15.70;99.90;;;;;;5017090;28;20183;-93
2023/08/06 03:12:18;;;;;;;2.78;2.10;;;15.70;99.90;;;;;;5016863;28;20232;-92
2023/08/06 03:14:44;;;;;;;6.10;2.85;;;15.70;99.90;;;;;;5017022;28;20174;-93
2023/08/06 03:17:10;;;;;;;4.93;2.30;;;15.60;99.90;;;;;;5017280;28;20203;-93
2023/08/06 03:19:35;;;;;;;3.35;2.40;;;15.60;99.90;;;;;;5016955;28;20257;-93
2023/08/06 03:22:01;;;;;;;13.85;2.42;;;15.50;99.90;;;;;;5004691;28;20235;-93
2023/08/06 03:24:28;;;;;;;4.55;2.20;;;15.50;99.90;;;;;;4997273;28;20222;-92
2023/08/06 03:26:53;;;;;;;2.72;2.38;;;15.50;99.90;;;;;;4997403;28;20242;-93
2023/08/06 03:29:21;;;;;;;3.42;2.53;;;15.50;99.90;;;;;;4997362;28;20183;-92
2023/08/06 03:31:46;;;;;;;2.63;2.42;;;15.50;99.90;;;;;;4997611;28;20179;-93
2023/08/06 03:34:13;;;;;;;5.15;2.50;;;15.60;99.90;;;;;;4997336;28;20182;-94
2023/08/06 03:36:39;;;;;;;5.40;2.60;;;15.60;99.90;;;;;;4997256;28;20190;-93
2023/08/06 03:39:04;;;;;;;2.80;2.33;;;15.60;99.90;;;;;;4997290;28;20175;-93
2023/08/06 03:41:30;;;;;;;5.35;2.75;;;15.70;99.90;;;;;;4996973;28;20622;-93
2023/08/06 03:43:56;;;;;;;6.97;2.90;;;15.70;99.90;;;;;;4996946;28;20225;-93
2023/08/06 03:46:22;;;;;;;7.70;2.70;;;15.70;99.90;;;;;;4998567;28;20540;-93
2023/08/06 03:48:47;;;;;;;3.05;2.60;;;15.70;99.90;;;;;;5000712;28;20182;-94
2023/08/06 03:51:13;;;;;;;5.07;2.67;;;15.70;99.90;;;;;;5005493;28;20187;-94
2023/08/06 03:53:41;;;;;;;4.32;2.97;;;15.60;99.90;;;;;;5020142;28;20182;-93
2023/08/06 03:56:07;;;;;;;6.70;3.28;;;15.50;99.90;;;;;;5020047;28;20190;-93
2023/08/06 03:58:32;;;;;;;3.55;3.17;;;15.50;99.90;;;;;;5020419;28;20492;-93
2023/08/06 04:01:02;;;;;;;5.32;2.88;;;15.50;99.90;;;;;;5020044;28;20606;-93
2023/08/06 04:03:31;;;;;;;5.20;3.10;;;15.50;99.90;;;;;;5019944;28;20606;-94
2023/08/06 04:05:56;;;;;;;4.35;2.92;;;15.50;99.90;;;;;;5019919;28;20186;-93
2023/08/06 04:08:23;;;;;;;8.40;3.05;;;15.60;99.90;;;;;;5020127;28;20206;-95
2023/08/06 04:10:53;;;;;;;4.63;2.88;;;15.60;99.90;;;;;;5019813;28;20183;-94
2023/08/06 04:13:20;;;;;;;4.13;2.85;;;15.60;99.90;;;;;;5019862;28;20175;-94
2023/08/06 04:15:48;;;;;;;3.80;3.30;;;15.60;99.90;;;;;;5019963;28;20563;-94
2023/08/06 04:18:14;;;;;;;5.60;3.35;;;15.60;99.90;;;;;;5020063;28;20181;-94
2023/08/06 04:20:45;;;;;;;4.10;3.10;;;15.60;99.90;;;;;;5019402;28;20186;-95
2023/08/06 04:23:11;;;;;;;4.68;3.08;;;15.60;99.90;;;;;;5035817;28;20191;-95
2023/08/06 04:25:36;;;;;;;6.40;2.83;;;15.50;99.90;;;;;;5019574;28;20217;-94
2023/08/06 04:28:02;;;;;;;5.30;3.20;;;15.60;99.90;;;;;;5019970;28;20167;-93
2023/08/06 04:30:28;;;;;;;3.33;2.90;;;15.60;99.90;;;;;;5019531;28;20206;-94
2023/08/06 04:32:54;;;;;;;6.00;3.20;;;15.60;99.90;;;;;;5019340;28;20198;-95
2023/08/06 04:35:23;;;;;;;5.15;2.95;;;15.60;99.90;;;;;;5019602;28;20186;-94
2023/08/06 04:37:49;;;;;;;3.90;3.47;;;15.50;99.90;;;;;;5019614;28;20178;-95
2023/08/06 04:40:15;;;;;;;3.78;2.85;;;15.50;99.90;;;;;;5018795;28;20178;-94
2023/08/06 04:42:41;;;;;;;3.63;2.90;;;15.50;99.90;;;;;;5019226;28;20252;-94
2023/08/06 04:45:09;;;;;;;3.92;3.20;;;15.50;99.90;;;;;;5019420;28;20241;-94
2023/08/06 04:47:35;;;;;;;5.85;3.40;;;15.50;99.90;;;;;;5019458;28;20163;-94
2023/08/06 04:50:01;;;;;;;5.70;3.20;;;15.60;99.90;;;;;;5019208;28;20285;-95
2023/08/06 04:52:28;;;;;;;4.13;3.33;;;15.60;99.90;;;;;;5018520;28;20187;-94
2023/08/06 04:55:06;;;;;;;5.53;3.28;;;15.60;99.90;;;;;;5019138;28;20182;-94
2023/08/06 04:57:31;;;;;;;3.05;2.75;;;15.60;99.90;;;;;;5018875;28;20233;-94
2023/08/06 04:59:57;;;;;;;4.43;2.70;;;15.60;99.90;;;;;;5018792;28;20185;-95
2023/08/06 05:02:23;;;;;;;4.03;3.25;;;15.60;99.90;;;;;;5018981;28;20174;-94
2023/08/06 05:05:06;;;;;;;4.82;3.13;;;15.60;99.90;;;;;;5018867;28;20206;-94
2023/08/06 05:07:32;;;;;;;7.88;3.25;;;15.70;99.90;;;;;;5018758;28;20202;-94
2023/08/06 05:09:58;;;;;;;3.90;3.08;;;15.70;99.90;;;;;;5019100;28;20214;-95
2023/08/06 05:12:23;;;;;;;3.50;2.83;;;15.70;99.90;;;;;;5018696;28;20205;-94
2023/08/06 05:14:51;;;;;;;4.30;2.90;;;15.70;99.90;;;;;;5018825;28;20186;-94
2023/08/06 05:17:17;;;;;;;3.53;3.10;;;15.70;99.90;;;;;;5019134;28;20178;-94
2023/08/06 05:19:42;;;;;;;5.05;3.20;;;15.70;99.90;;;;;;5018119;28;20251;-94
2023/08/06 05:22:08;;;;;;;4.07;3.22;;;15.60;99.90;;;;;;5018686;28;20237;-94
2023/08/06 05:24:41;;;;;;;5.80;3.45;;;15.60;99.90;;;;;;5018505;28;20214;-94
2023/08/06 05:27:07;;;;;;;6.45;3.08;;;15.60;99.90;;;;;;5018403;28;20174;-94
2023/08/06 05:29:32;;;;;;;5.65;2.90;;;15.60;99.90;;;;;;5018674;28;20180;-93
2023/08/06 05:31:58;;;;;;;3.78;3.30;;;15.60;99.90;;;;;;5018691;28;20202;-95
2023/08/06 05:34:24;;;;;;;4.57;3.00;;;15.60;99.90;;;;;;5018360;28;20208;-92
2023/08/06 05:36:50;;;;;;;5.68;3.22;;;15.60;99.90;;;;;;5042999;28;20189;-92
2023/08/06 05:39:16;;;;;;;5.78;3.38;;;15.70;99.90;;;;;;5018440;28;20178;-93
2023/08/06 05:41:42;;;;;;;6.25;3.67;;;15.70;99.90;;;;;;5018015;28;20184;-93
2023/08/06 05:44:07;;;;;;;6.32;3.05;;;15.70;99.90;;;;;;5018144;28;20675;-93
2023/08/06 05:46:34;;;;;;;4.10;3.17;;;15.70;99.90;;;;;;5018317;28;20185;-93
2023/08/06 05:49:00;;;;;;;4.30;2.97;;;15.70;99.90;;;;;;5018037;28;20620;-93
2023/08/06 05:51:27;;;;;;;5.05;3.42;;;15.70;99.90;;;;;;5034458;28;20178;-92
2023/08/06 05:53:52;;;;;;;7.43;3.47;;;15.70;99.90;;;;;;5018047;28;20312;-93
2023/08/06 05:56:22;;;;;;;4.70;3.35;;;15.80;99.90;;;;;;5034291;28;20217;-92
2023/08/06 05:58:50;;;;;;;9.88;3.30;;;15.80;99.90;;;;;;5034628;28;20286;-91
2023/08/06 06:01:16;;;;;;;7.20;3.63;;;15.90;99.90;;;;;;5017714;28;20261;-92
2023/08/06 06:03:45;;;;;;;5.13;3.50;;;15.90;99.90;;;;;;5034680;28;20206;-91
2023/08/06 06:06:10;;;;;;;3.75;3.22;;;15.90;99.90;;;;;;5029671;28;20648;-92
2023/08/06 06:08:36;;;;;;;6.80;3.28;;;15.90;99.90;;;;;;5017212;28;20200;-91
2023/08/06 06:11:02;;;;;;;5.75;3.20;;;15.90;99.90;;;;;;5017942;28;20183;-91
2023/08/06 06:13:27;;;;;;;5.90;3.40;;;16.00;99.90;;;;;;5017700;28;20557;-91
2023/08/06 06:15:56;;;;;;;3.65;2.90;;;16.00;99.90;;;;;;5023799;28;20182;-93
2023/08/06 06:18:22;;;;;;;5.00;3.17;;;16.00;99.90;;;;;;5035028;28;20169;-91
2023/08/06 06:20:48;;;;;;;3.55;3.25;;;16.00;99.90;;;;;;5015837;28;20709;-91
2023/08/06 06:23:14;;;;;;;4.63;2.72;;;16.10;99.90;;;;;;4997359;28;20179;-92
2023/08/06 06:25:51;;;;;;;4.68;3.05;;;16.10;99.90;;;;;;4998098;28;20214;-92
2023/08/06 06:28:18;;;;;;;7.65;3.42;;;16.20;99.90;;;;;;4997402;28;20174;-92
2023/08/06 06:30:44;;;;;;;3.45;3.13;;;16.20;99.90;;;;;;4997151;28;20187;-93
2023/08/06 06:33:10;;;;;;;5.10;3.20;;;16.30;99.90;;;;;;5014619;28;20230;-94
2023/08/06 06:35:36;;;;;;;4.85;3.00;;;16.30;99.90;;;;;;4993624;28;20226;-93
2023/08/06 06:38:02;;;;;;;4.57;3.00;;;16.30;99.90;;;;;;4992760;28;20633;-94
2023/08/06 06:40:28;;;;;;;4.75;3.45;;;16.30;99.90;;;;;;4996696;28;20182;-94
2023/08/06 06:42:54;;;;;;;3.75;3.00;;;16.30;99.90;;;;;;4996931;28;20179;-95
2023/08/06 06:45:19;;;;;;;5.32;3.40;;;16.40;99.90;;;;;;4985409;28;20302;-92
2023/08/06 06:47:51;;;;;;;5.40;3.20;;;16.40;99.90;;;;;;4997622;28;20234;-94
2023/08/06 06:50:17;;;;;;;5.45;3.35;;;16.50;99.90;;;;;;4996387;28;20179;-92
2023/08/06 06:52:45;;;;;;;3.10;2.80;;;16.40;99.90;;;;;;4997285;28;20195;-93
2023/08/06 06:55:11;;;;;;;6.78;3.42;;;16.40;99.90;;;;;;4995468;28;20194;-93
2023/08/06 06:57:44;;;;;;;3.50;2.75;;;16.40;99.90;;;;;;4993187;28;20179;-93
2023/08/06 07:00:10;;;;;;;4.95;3.20;;;16.40;99.90;;;;;;4996072;28;20218;-94
2023/08/06 07:02:36;;;;;;;4.60;3.17;;;16.50;99.90;;;;;;4995157;28;20175;-93
2023/08/06 07:05:04;;;;;;;4.05;2.58;;;16.50;99.90;;;;;;4982509;28;20218;-93
2023/08/06 07:07:37;;;;;;;4.88;3.17;;;16.60;99.90;;;;;;4977827;28;20255;-92
2023/08/06 07:10:03;;;;;;;3.65;2.70;;;16.70;99.90;;;;;;4977991;28;20187;-88
2023/08/06 07:12:29;;;;;;;3.30;2.70;;;16.80;99.90;;;;;;4996327;28;20626;-89
2023/08/06 07:14:55;;;;;;;3.00;2.45;;;16.90;99.90;;;;;;4997553;28;20790;-89
2023/08/06 07:17:21;;;;;;;3.15;2.80;;;16.90;99.90;;;;;;4996108;28;20569;-93
2023/08/06 07:19:47;;;;;;;3.53;2.35;;;17.00;99.90;;;;;;4997349;28;20179;-92
2023/08/06 07:22:13;;;;;;;4.38;2.65;;;17.00;99.90;;;;;;4999473;28;20283;-91
2023/08/06 07:24:38;;;;;;;2.90;2.58;;;17.10;99.90;;;;;;5008703;28;20203;-94
2023/08/06 07:27:05;;;;;;;2.88;2.45;;;17.10;99.90;;;;;;5022305;28;20604;-92
2023/08/06 07:29:32;;;;;;;3.28;2.63;;;17.10;99.90;;;;;;5017755;28;20176;-92
2023/08/06 07:31:57;;;;;;;3.17;2.50;;;17.10;99.90;;;;;;5015809;28;20201;-92
2023/08/06 07:34:23;;;;;;;3.13;2.35;;;17.20;99.90;;;;;;5014855;28;20175;-92
2023/08/06 07:36:50;;;;;;;2.95;2.38;;;17.20;99.90;;;;;;5005974;28;20178;-92
2023/08/06 07:39:16;;;;;;;2.38;2.10;;;17.30;99.90;;;;;;5029501;28;20246;-92
2023/08/06 07:41:42;;;;;;;3.85;2.40;;;17.30;99.90;;;;;;5002413;28;20206;-90
2023/08/06 07:44:08;;;;;;;3.42;2.70;;;17.30;99.90;;;;;;5000312;28;20662;-91
2023/08/06 07:46:33;;;;;;;2.85;2.58;;;17.30;99.90;;;;;;5012480;28;20321;-92
2023/08/06 07:48:59;;;;;;;5.00;2.47;;;17.30;99.90;;;;;;5020149;28;20190;-90
2023/08/06 07:51:25;;;;;;;3.53;2.35;;;17.40;99.90;;;;;;5019838;28;20836;-92
2023/08/06 07:53:50;;;;;;;2.40;1.77;;;17.40;99.90;;;;;;5020486;28;20265;-92
2023/08/06 07:56:16;;;;;;;3.22;1.63;;;17.50;99.90;;;;;;5020328;28;20178;-91
2023/08/06 07:58:46;;;;;;;2.00;1.70;;;17.50;99.90;;;;;;5020162;28;20175;-92
2023/08/06 08:01:12;;;;;;;2.55;1.90;;;17.60;99.90;;;;;;5019829;28;20186;-91
2023/08/06 08:03:38;;;;;;;2.58;2.30;;;17.50;99.90;;;;;;5034787;28;20189;-91
2023/08/06 08:06:03;;;;;;;2.28;2.08;;;17.50;99.90;;;;;;5000181;28;20191;-93
2023/08/06 08:08:38;;;;;;;3.30;2.40;;;17.60;99.90;;;;;;5000266;28;20210;-91
2023/08/06 08:11:06;;;;;;;4.53;2.33;;;17.70;99.90;;;;;;5000318;28;20183;-93
2023/08/06 08:13:32;;;;;;;2.88;2.28;;;17.70;99.90;;;;;;5005481;28;20252;-90
2023/08/06 08:15:58;;;;;;;3.25;1.90;;;17.80;99.90;;;;;;5019882;28;20613;-91
2023/08/06 08:18:31;;;;;;;2.83;2.50;;;17.90;99.90;;;;;;5014726;28;20178;-92
2023/08/06 08:20:57;;;;;;;5.55;2.03;;;17.80;99.90;;;;;;5000457;28;20223;-91
2023/08/06 08:23:23;;;;;;;2.63;1.67;;;17.90;99.90;;;;;;5000150;28;20202;-92
2023/08/06 08:25:48;;;;;;;3.95;1.80;;;18.00;99.90;;;;;;5018011;28;20218;-92
2023/08/06 08:28:30;;;;;;;3.17;1.60;;;18.10;99.90;;;;;;5019637;28;20182;-92
2023/08/06 08:31:11;;;;;;;3.08;1.70;;;18.20;99.90;;;;;;5016093;28;20718;-93
2023/08/06 08:33:38;;;;;;;6.00;1.90;;;18.30;99.90;;;;;;5035243;28;20627;-92
2023/08/06 08:36:04;;;;;;;1.65;1.55;;;18.40;99.90;;;;;;5039411;28;20209;-93
2023/08/06 08:38:31;;;;;;;5.38;1.50;;;18.50;99.90;;;;;;5036706;28;20197;-93
2023/08/06 08:40:57;;;;;;;2.42;1.50;;;18.50;99.90;;;;;;5019387;28;20694;-92
2023/08/06 08:43:31;;;;;;;2.00;1.33;;;18.60;99.90;;;;;;5011374;28;20282;-93
2023/08/06 08:46:01;;;;;;;2.92;1.48;;;18.60;99.90;;;;;;5018086;28;20662;-92
2023/08/06 08:48:45;;;;;;;1.95;1.65;;;18.70;99.90;;;;;;5036162;28;20179;-91
2023/08/06 08:51:13;;;;;;;2.53;1.50;;;18.80;99.90;;;;;;5010134;28;20632;-93
2023/08/06 08:53:39;;;;;;;1.55;1.40;;;18.90;99.90;;;;;;5017697;28;20532;-92
2023/08/06 08:56:05;;;;;;;3.17;1.40;;;18.90;99.90;;;;;;5018018;28;20210;-93
2023/08/06 08:58:32;;;;;;;1.20;1.10;;;19.00;99.90;;;;;;5018509;28;20187;-93
2023/08/06 09:00:58;;;;;;;2.35;1.20;;;19.00;99.90;;;;;;5014200;28;20189;-93
2023/08/06 09:03:24;;;;;;;3.95;1.45;;;19.10;99.90;;;;;;5009713;28;20257;-92
2023/08/06 09:05:54;;;;;;;1.25;1.10;;;19.10;99.90;;;;;;5026339;28;20218;-92
2023/08/06 09:08:30;;;;;;;2.42;1.15;;;19.20;99.90;;;;;;5008582;28;20630;-93
2023/08/06 09:10:56;;;;;;;2.08;1.58;;;19.20;99.90;;;;;;5035684;28;20182;-93
2023/08/06 09:13:23;;;;;;;1.25;1.15;;;19.20;99.90;;;;;;5015171;28;20286;-92
2023/08/06 09:15:50;;;;;;;1.48;1.00;;;19.20;99.90;;;;;;5018018;28;20183;-93
2023/08/06 09:18:26;;;;;;;1.75;1.30;;;19.30;99.90;;;;;;5013298;28;20189;-94
2023/08/06 09:20:52;;;;;;;3.20;1.23;;;19.30;99.90;;;;;;5010354;28;20624;-93
2023/08/06 09:23:20;;;;;;;2.78;1.23;;;19.40;99.90;;;;;;5005724;28;20205;-94
2023/08/06 09:25:46;;;;;;;1.55;1.38;;;19.50;99.90;;;;;;5017226;28;20250;-92
2023/08/06 09:28:11;;;;;;;1.50;1.40;;;19.60;99.90;;;;;;5017774;28;20264;-92
2023/08/06 09:30:37;;;;;;;3.22;1.50;;;19.70;99.90;;;;;;5034426;28;20182;-91
2023/08/06 09:33:08;;;;;;;1.63;1.35;;;19.70;99.90;;;;;;5017877;28;20186;-95
2023/08/06 09:35:33;;;;;;;2.38;1.20;;;19.60;99.90;;;;;;5016940;28;20269;-94
2023/08/06 09:38:07;;;;;;;3.30;1.40;;;19.60;99.90;;;;;;5014515;28;20298;-93
2023/08/06 09:40:33;;;;;;;1.45;1.30;;;19.60;99.90;;;;;;5034840;28;20225;-93
2023/08/06 09:42:59;;;;;;;1.40;1.30;;;19.80;99.90;;;;;;5017143;28;20189;-94
2023/08/06 09:45:36;;;;;;;3.08;1.50;;;19.80;99.90;;;;;;5034245;28;20260;-94
2023/08/06 09:48:08;;;;;;;1.98;1.77;;;19.80;99.90;;;;;;5031637;28;20225;-93
2023/08/06 09:50:37;;;;;;;1.40;1.30;;;19.90;99.90;;;;;;5012646;28;20187;-94
2023/08/06 09:53:06;;;;;;;1.95;1.40;;;20.00;99.90;;;;;;5016797;28;20653;-95
2023/08/06 09:55:33;;;;;;;1.20;1.10;;;20.10;99.90;;;;;;5013652;28;20277;-94
2023/08/06 09:57:59;;;;;;;2.90;1.30;;;20.00;99.90;;;;;;5015028;28;20179;-94
2023/08/06 10:00:36;;;;;;;3.70;1.33;;;20.10;99.90;;;;;;5018473;28;20548;-94
2023/08/06 10:03:02;;;;;;;1.63;1.20;;;20.20;99.90;;;;;;5005850;28;20189;-94
2023/08/06 10:05:29;;;;;;;1.35;1.25;;;20.20;99.90;;;;;;5015216;28;20210;-93
2023/08/06 10:07:57;;;;;;;1.60;0.88;;;20.20;99.90;;;;;;5017244;28;20186;-94
2023/08/06 10:10:30;;;;;;;2.60;1.05;;;20.30;99.90;;;;;;5016834;28;20609;-94
2023/08/06 10:12:58;;;;;;;2.35;1.02;;;20.40;99.90;;;;;;5015076;28;20189;-94
2023/08/06 10:15:27;;;;;;;1.80;1.00;;;20.50;99.90;;;;;;5016677;28;20198;-94
2023/08/06 10:17:56;;;;;;;1.42;1.05;;;20.60;99.90;;;;;;5017078;28;20556;-95
2023/08/06 10:20:22;;;;;;;1.20;1.10;;;20.90;99.90;;;;;;5034244;28;20643;-93
2023/08/06 10:23:08;;;;;;;1.45;1.10;;;21.00;99.90;;;;;;5016842;28;20319;-95
2023/08/06 10:25:39;;;;;;;1.40;1.25;;;21.10;99.90;;;;;;5016156;28;20218;-94
2023/08/06 10:28:10;;;;;;;1.33;1.17;;;21.30;99.90;;;;;;5034640;28;20178;-93
2023/08/06 10:30:47;;;;;;;1.63;1.30;;;21.30;99.90;;;;;;5016596;28;20193;-94
2023/08/06 10:33:13;;;;;;;1.30;1.13;;;21.50;99.90;;;;;;5012947;28;20512;-93
2023/08/06 10:35:44;;;;;;;1.17;1.08;;;21.40;99.90;;;;;;5016261;28;20190;-92
2023/08/06 10:38:11;;;;;;;3.35;1.17;;;21.40;99.90;;;;;;5016615;28;20397;-94
2023/08/06 10:40:40;;;;;;;3.05;1.08;;;21.40;99.90;;;;;;5015909;28;20208;-96
2023/08/06 10:43:07;;;;;;;1.73;1.17;;;21.50;99.90;;;;;;5034423;28;20182;-95
2023/08/06 10:45:37;;;;;;;1.38;1.05;;;21.60;99.90;;;;;;5016276;28;20215;-95
2023/08/06 10:48:04;;;;;;;1.83;1.20;;;21.70;99.90;;;;;;5034193;28;20512;-94
2023/08/06 10:50:32;;;;;;;2.72;1.10;;;21.50;99.90;;;;;;5034194;28;20189;-95
2023/08/06 10:52:58;;;;;;;1.65;1.10;;;21.50;99.90;;;;;;5012732;28;20190;-94
2023/08/06 10:55:25;;;;;;;1.10;1.00;;;21.60;99.90;;;;;;5037027;28;20178;-96
2023/08/06 10:57:51;;;;;;;1.50;1.00;;;21.50;99.90;;;;;;5036088;28;20186;-96
2023/08/06 11:00:25;;;;;;;1.38;1.00;;;21.50;99.90;;;;;;5023295;28;20205;-95
2023/08/06 11:02:55;;;;;;;2.25;0.90;;;21.50;99.90;;;;;;5013661;28;20190;-93
2023/08/06 11:05:20;;;;;;;0.90;0.90;;;21.50;99.90;;;;;;5019822;28;20663;-96
2023/08/06 11:07:48;;;;;;;2.05;1.10;;;21.30;99.90;;;;;;5038125;28;20265;-96
2023/08/06 11:10:15;;;;;;;1.50;1.00;;;21.30;99.90;;;;;;5020576;28;20216;-96
2023/08/06 11:12:41;;;;;;;0.85;0.82;;;21.40;99.90;;;;;;5020162;28;20221;-95
2023/08/06 11:15:11;;;;;;;1.17;1.08;;;21.50;99.90;;;;;;5020593;28;20222;-96
2023/08/06 11:17:39;;;;;;;1.10;0.90;;;21.60;99.90;;;;;;5024270;28;20558;-94
2023/08/06 11:20:05;;;;;;;1.70;1.10;;;21.70;99.90;;;;;;5018367;28;20186;-95
2023/08/06 11:22:32;;;;;;;1.23;0.85;;;21.80;99.90;;;;;;4997642;28;20616;-96
2023/08/06 11:24:58;;;;;;;1.35;1.10;;;21.90;99.90;;;;;;4983690;28;20223;-90
2023/08/06 11:27:26;;;;;;;2.15;1.10;;;21.90;99.90;;;;;;5017678;28;20230;-94
2023/08/06 11:29:54;;;;;;;0.88;0.73;;;21.80;99.90;;;;;;4998348;28;20192;-95
2023/08/06 11:32:21;;;;;;;1.23;0.93;;;21.80;99.90;;;;;;5030046;28;20564;-94
2023/08/06 11:34:47;;;;;;;1.23;1.02;;;21.80;99.90;;;;;;4999311;28;20189;-95
2023/08/06 11:37:13;;;;;;;1.60;1.13;;;21.80;99.90;;;;;;5004236;28;20183;-92
2023/08/06 11:39:44;;;;;;;1.38;1.00;;;21.80;99.90;;;;;;5000305;28;20211;-93
2023/08/06 11:42:14;;;;;;;1.48;1.02;;;21.80;99.90;;;;;;5000132;28;20583;-95
2023/08/06 11:44:45;;;;;;;1.13;1.00;;;21.70;99.90;;;;;;4999980;28;20256;-93
2023/08/06 11:47:14;;;;;;;1.80;0.90;;;21.60;99.90;;;;;;5000000;28;20190;-95
2023/08/06 11:49:46;;;;;;;0.98;0.85;;;21.70;99.90;;;;;;5017323;28;20195;-96
2023/08/06 11:52:22;;;;;;;1.35;1.08;;;21.70;99.90;;;;;;5017680;28;20858;-95
2023/08/06 11:55:14;;;;;;;2.15;1.23;;;21.60;99.90;;;;;;5007622;28;20523;-95
2023/08/06 11:57:44;;;;;;;2.05;0.90;;;21.80;99.90;;;;;;5004044;28;20175;-95
2023/08/06 12:00:14;;;;;;;1.05;0.95;;;21.90;99.90;;;;;;5027814;28;20182;-91
2023/08/06 12:02:41;;;;;;;2.40;1.00;;;21.90;99.90;;;;;;4999826;28;20188;-96
2023/08/06 12:05:16;;;;;;;1.38;1.00;;;21.80;99.90;;;;;;4999521;28;20319;-96
2023/08/06 12:07:45;;;;;;;1.10;1.00;;;21.60;99.90;;;;;;5000032;28;20279;-94
2023/08/06 12:10:12;;;;;;;1.40;0.95;;;21.80;99.90;;;;;;4999784;28;20557;-96
2023/08/06 12:12:40;;;;;;;1.30;1.00;;;21.90;99.90;;;;;;4999361;28;20195;-96
2023/08/06 12:15:07;;;;;;;0.82;0.82;;;21.90;99.90;;;;;;5000893;28;20219;-96
2023/08/06 12:17:33;;;;;;;3.97;1.00;;;21.90;99.90;;;;;;5001457;28;20677;-94
2023/08/06 12:19:59;;;;;;;1.45;1.10;;;22.00;99.90;;;;;;4999304;28;20191;-95
2023/08/06 12:22:25;;;;;;;2.28;1.15;;;22.20;99.90;;;;;;5005229;28;20223;-95
2023/08/06 12:24:53;;;;;;;1.35;1.00;;;22.50;99.90;;;;;;4994584;28;20255;-96
2023/08/06 12:27:19;;;;;;;2.17;1.20;;;22.70;99.90;;;;;;4986089;28;20192;-96
2023/08/06 12:29:47;;;;;;;2.63;0.93;;;22.80;99.90;;;;;;5016902;28;20191;-95
2023/08/06 12:32:14;;;;;;;1.85;0.90;;;22.80;99.90;;;;;;4994544;28;20235;-96
2023/08/06 12:34:42;;;;;;;1.42;1.10;;;22.50;99.90;;;;;;4995323;28;20186;-96
2023/08/06 12:37:09;;;;;;;1.48;1.00;;;22.40;99.90;;;;;;4991380;28;20187;-94
2023/08/06 12:39:35;;;;;;;1.55;1.00;;;22.40;99.90;;;;;;4988629;28;20255;-96
2023/08/06 12:42:13;;;;;;;1.80;1.17;;;22.30;99.90;;;;;;4993904;28;20183;-96
2023/08/06 12:44:39;;;;;;;1.58;1.13;;;22.00;99.90;;;;;;5003928;28;20232;-96
2023/08/06 12:47:07;;;;;;;1.10;1.00;;;21.80;99.90;;;;;;4992287;28;20191;-96
2023/08/06 12:49:33;;;;;;;1.10;1.00;;;21.60;99.90;;;;;;4994764;28;20738;-96